高知空港の過去48時間の天気

高知空港 (Kochi)

現在時刻: 2/21 12:44 JST (2/21 03:44 UTC) 以下の時間は現地時間です。

過去48時間のMETAR気象情報
時間 風向 風速(m/s) 視程 気温(℃) 湿度(%) 気圧(hPa) 天気現象
21 12:00 4 10km以上 13 54 1033
21 11:00 南東 3 10km以上 13 41 1034
21 10:00 東南東 2 10km以上 12 44 1034
21 09:00 4 10km以上 9 50 1035
21 08:00 4 10km以上 5 75 1035
21 07:00 北北西 5 10km以上 3 81 1035
21 06:10 北北西 5 10km以上 3 81 1034
RJOK 210300Z 17008KT 140V210 9999 FEW050 13/04 Q1033
RJOK 210200Z 14006KT 110V180 9999 FEW030 13/M00 Q1034
RJOK 210100Z 12004KT 020V170 9999 FEW030 12/M00 Q1034
RJOK 210000Z 35008KT 9999 FEW030 09/M01 Q1035
RJOK 202300Z 35007KT 9999 FEW030 05/01 Q1035
RJOK 202200Z 34009KT 9999 FEW030 03/00 Q1035
RJOK 202110Z 33009KT 9999 FEW030 03/00 Q1034 RMK 1CU030 A3055